createdAt,value
2019-01-28T05:24:32.250Z,68.40
2019-01-28T05:27:26.185Z,68.50
2019-01-28T05:30:20.160Z,68.60
2019-01-28T05:33:12.389Z,68.80
2019-01-28T05:36:04.460Z,69.00
2019-01-28T05:38:56.633Z,69.20
2019-01-28T05:41:50.664Z,69.70
2019-01-28T05:44:43.383Z,70.10
2019-01-28T05:47:35.794Z,70.40
2019-01-28T05:50:29.248Z,70.70
2019-01-28T05:53:21.202Z,70.90
2019-01-28T05:56:12.970Z,71.10
2019-01-28T05:59:05.085Z,71.30
2019-01-28T06:01:57.148Z,71.80
2019-01-28T06:04:49.388Z,71.80
2019-01-28T06:07:41.475Z,71.90
2019-01-28T06:10:33.776Z,71.90
2019-01-28T06:13:27.225Z,71.90
2019-01-28T06:16:21.283Z,71.90
2019-01-28T06:19:14.275Z,71.90
2019-01-28T06:22:08.437Z,71.90
2019-01-28T06:25:02.356Z,71.70
2019-01-28T06:27:59.333Z,71.90
2019-01-28T06:30:52.448Z,71.90
2019-01-28T06:33:44.658Z,71.80
2019-01-28T06:36:38.152Z,71.80
2019-01-28T06:39:31.784Z,71.40
2019-01-28T06:42:24.297Z,71.60
2019-01-28T06:45:17.392Z,71.70
2019-01-28T06:48:10.362Z,71.70
2019-01-28T06:51:02.482Z,71.80
2019-01-28T06:53:55.525Z,71.90
2019-01-28T06:56:48.493Z,71.90
2019-01-28T06:59:41.542Z,72.00
2019-01-28T07:02:36.523Z,71.90
2019-01-28T07:05:35.008Z,71.90
2019-01-28T07:08:32.398Z,72.00
2019-01-28T07:11:26.802Z,71.60
2019-01-28T07:14:22.319Z,72.20
2019-01-28T07:17:15.069Z,72.80
2019-01-28T07:20:08.752Z,72.30
2019-01-28T07:23:05.723Z,72.20
2019-01-28T07:25:58.139Z,72.10
2019-01-28T07:28:50.313Z,72.10
2019-01-28T07:31:42.822Z,72.20
2019-01-28T07:34:36.633Z,72.10
2019-01-28T07:37:30.077Z,72.80
2019-01-28T07:40:24.004Z,72.50
2019-01-28T07:43:19.021Z,73.00
2019-01-28T07:46:13.325Z,72.90
2019-01-28T07:49:08.308Z,73.10
2019-01-28T07:52:03.964Z,73.20
2019-01-28T07:54:58.338Z,73.10
2019-01-28T07:57:52.372Z,73.00
2019-01-28T08:00:47.967Z,73.10
2019-01-28T08:03:41.842Z,73.00
2019-01-28T08:06:34.728Z,73.20
2019-01-28T08:09:28.955Z,73.00
2019-01-28T08:12:23.389Z,73.00
2019-01-28T08:15:17.992Z,73.10
2019-01-28T08:18:11.540Z,73.00
2019-01-28T08:21:03.977Z,73.00
2019-01-28T08:23:56.196Z,72.90
2019-01-28T08:26:48.877Z,72.90
2019-01-28T08:29:41.298Z,73.00
2019-01-28T08:32:33.612Z,72.90
2019-01-28T08:35:29.189Z,73.00
2019-01-28T08:38:21.602Z,72.80
2019-01-28T08:41:14.445Z,72.90
2019-01-28T08:44:07.470Z,73.00
2019-01-28T08:46:59.706Z,72.80
2019-01-28T08:49:52.082Z,72.70
2019-01-28T08:52:44.465Z,72.60
2019-01-28T08:55:36.721Z,72.50
2019-01-28T08:58:28.959Z,72.40
2019-01-28T09:01:21.274Z,72.50
2019-01-28T09:04:13.851Z,72.40
2019-01-28T09:07:06.811Z,71.90
2019-01-28T09:09:59.529Z,71.90
2019-01-28T09:12:52.811Z,71.50
2019-01-28T09:15:46.583Z,71.40
2019-01-28T09:18:38.782Z,71.50
2019-01-28T09:21:31.563Z,71.40
2019-01-28T09:24:23.816Z,71.30
2019-01-28T09:27:16.491Z,71.10
2019-01-28T09:30:09.875Z,71.20
2019-01-28T09:33:03.347Z,71.30
2019-01-28T09:35:55.386Z,71.50
2019-01-28T09:38:48.622Z,71.40
2019-01-28T09:41:41.456Z,71.40
2019-01-28T09:44:34.042Z,71.40
2019-01-28T09:47:27.485Z,71.40
2019-01-28T09:50:21.180Z,71.50
2019-01-28T09:53:15.883Z,71.40
2019-01-28T09:56:10.137Z,71.40
2019-01-28T09:59:10.695Z,71.10
2019-01-28T10:02:04.809Z,70.90
2019-01-28T10:04:57.976Z,70.60
2019-01-28T10:08:21.583Z,70.50
2019-01-28T10:11:15.178Z,70.30
2019-01-28T10:14:08.396Z,70.30
2019-01-28T10:17:01.869Z,70.40
2019-01-28T10:19:55.883Z,70.50
2019-01-28T10:22:49.826Z,70.70
2019-01-28T10:25:44.134Z,70.50
2019-01-28T10:28:37.189Z,70.50
2019-01-28T10:31:30.471Z,70.60
2019-01-28T10:34:23.025Z,70.70
2019-01-28T10:37:17.111Z,70.80
2019-01-28T10:40:12.708Z,70.90
2019-01-28T10:43:22.729Z,71.20
2019-01-28T10:46:14.023Z,71.40
2019-01-28T10:49:07.935Z,71.50
2019-01-28T10:52:12.659Z,71.40
2019-01-28T10:55:06.763Z,71.60
2019-01-28T10:58:01.008Z,71.70
2019-01-28T11:00:55.930Z,72.00
2019-01-28T11:03:50.049Z,72.00
2019-01-28T11:06:46.439Z,72.00
2019-01-28T11:09:39.982Z,72.20
2019-01-28T11:12:33.496Z,72.20
2019-01-28T11:15:28.753Z,72.40
2019-01-28T11:18:24.345Z,72.40
2019-01-28T11:21:16.688Z,72.20
2019-01-28T11:24:09.666Z,72.20
2019-01-28T11:27:02.805Z,72.90
2019-01-28T11:29:55.266Z,72.40
2019-01-28T11:32:47.915Z,72.40
2019-01-28T11:35:40.885Z,72.50
2019-01-28T11:38:33.863Z,72.40
2019-01-28T11:41:26.511Z,72.50
2019-01-28T11:44:18.655Z,72.50
2019-01-28T11:47:11.146Z,72.60
2019-01-28T11:50:06.492Z,72.50
2019-01-28T11:53:01.182Z,72.70
2019-01-28T11:55:54.633Z,72.70
2019-01-28T11:58:48.744Z,72.60
2019-01-28T12:01:41.462Z,72.70
2019-01-28T12:04:33.795Z,72.60
2019-01-28T12:07:26.763Z,72.60
2019-01-28T12:10:21.210Z,72.70
2019-01-28T12:13:13.400Z,72.90
2019-01-28T12:16:07.708Z,72.70
2019-01-28T12:19:00.694Z,72.70
2019-01-28T12:21:54.811Z,72.80
2019-01-28T12:24:47.990Z,72.60
2019-01-28T12:27:43.293Z,73.00
2019-01-28T12:30:36.533Z,73.10
2019-01-28T12:33:29.982Z,73.00
2019-01-28T12:36:22.791Z,73.30
2019-01-28T12:39:21.630Z,73.30
2019-01-28T12:42:19.066Z,73.40
2019-01-28T12:45:17.355Z,73.30
2019-01-28T12:48:11.184Z,73.40
2019-01-28T12:51:03.094Z,73.30
2019-01-28T12:53:55.335Z,73.40
2019-01-28T12:56:47.343Z,73.30
2019-01-28T12:59:39.389Z,73.50
2019-01-28T13:02:31.810Z,73.50
2019-01-28T13:05:24.569Z,73.40
2019-01-28T13:08:16.513Z,73.20
2019-01-28T13:11:08.898Z,73.40
2019-01-28T13:14:01.071Z,73.50
2019-01-28T13:16:53.155Z,73.50
2019-01-28T13:19:45.203Z,73.50
2019-01-28T13:22:44.625Z,73.50
2019-01-28T13:25:31.477Z,73.40
2019-01-28T13:28:23.727Z,73.30
2019-01-28T13:31:15.995Z,73.20
2019-01-28T13:34:08.098Z,73.20
2019-01-28T13:37:00.504Z,73.00
2019-01-28T13:39:52.497Z,73.00
2019-01-28T13:42:44.820Z,73.00
2019-01-28T13:45:37.324Z,72.90
2019-01-28T13:48:29.782Z,72.90
2019-01-28T13:51:22.557Z,73.60
2019-01-28T13:54:15.207Z,72.80
2019-01-28T13:57:07.189Z,72.70
2019-01-28T13:59:59.792Z,72.70
2019-01-28T14:02:51.814Z,72.60
2019-01-28T14:05:44.471Z,72.50
2019-01-28T14:08:37.340Z,72.50
2019-01-28T14:11:30.190Z,72.40
2019-01-28T14:14:22.336Z,72.40
2019-01-28T14:17:14.705Z,72.40
2019-01-28T14:20:07.769Z,72.40
2019-01-28T14:23:00.010Z,72.30
2019-01-28T14:25:52.420Z,72.40
2019-01-28T14:28:44.951Z,72.30
2019-01-28T14:31:37.177Z,72.30
2019-01-28T14:34:29.653Z,72.20
2019-01-28T14:37:21.760Z,72.00
2019-01-28T14:40:15.280Z,71.90
2019-01-28T14:43:08.399Z,71.90
2019-01-28T14:46:00.849Z,72.00
2019-01-28T14:48:53.336Z,71.80
2019-01-28T14:51:45.797Z,71.80
2019-01-28T14:54:37.843Z,71.70
2019-01-28T14:57:29.970Z,71.80
2019-01-28T15:00:23.585Z,71.70
2019-01-28T15:03:15.789Z,71.60
2019-01-28T15:06:07.786Z,71.60
2019-01-28T15:08:59.931Z,71.60
2019-01-28T15:11:51.916Z,71.60
2019-01-28T15:14:43.953Z,71.60
2019-01-28T15:17:36.019Z,71.60
2019-01-28T15:20:29.734Z,71.60
2019-01-28T15:23:22.259Z,71.60
2019-01-28T15:26:15.431Z,71.60
2019-01-28T15:29:08.566Z,71.60
2019-01-28T15:32:01.509Z,71.50
2019-01-28T15:34:53.710Z,71.80
2019-01-28T15:37:46.618Z,71.60
2019-01-28T15:40:38.508Z,71.40
2019-01-28T15:43:31.254Z,71.50
2019-01-28T15:46:24.659Z,71.50
2019-01-28T15:49:17.649Z,71.40
2019-01-28T15:52:09.928Z,71.50
2019-01-28T15:55:02.366Z,71.40
2019-01-28T15:57:55.303Z,71.50
2019-01-28T16:00:48.208Z,71.40
2019-01-28T16:03:41.179Z,71.40
2019-01-28T16:06:34.023Z,71.50
2019-01-28T16:09:28.943Z,71.60
2019-01-28T16:12:20.543Z,71.60
2019-01-28T16:15:20.414Z,71.60
2019-01-28T16:18:13.647Z,71.60
2019-01-28T16:21:07.240Z,71.60
2019-01-28T16:24:00.815Z,71.50
2019-01-28T16:26:53.204Z,71.50
2019-01-28T16:29:45.696Z,71.50
2019-01-28T16:32:38.426Z,71.60
2019-01-28T16:35:30.714Z,71.50
2019-01-28T16:38:22.781Z,71.50
2019-01-28T16:41:15.738Z,71.50
2019-01-28T16:44:08.339Z,71.40
2019-01-28T16:47:00.912Z,71.40
2019-01-28T16:49:53.761Z,71.40
2019-01-28T16:52:46.600Z,71.40
2019-01-28T16:55:39.130Z,71.70
2019-01-28T16:58:31.848Z,71.30
2019-01-28T17:01:24.257Z,71.40
2019-01-28T17:04:17.408Z,71.20
2019-01-28T17:07:09.728Z,71.20
2019-01-28T17:10:02.015Z,69.90
2019-01-28T17:12:55.289Z,69.90
2019-01-28T17:15:47.506Z,70.00
2019-01-28T17:18:39.746Z,69.50
2019-01-28T17:21:32.027Z,69.90
2019-01-28T17:24:24.105Z,70.50
2019-01-28T17:27:16.493Z,70.80
2019-01-28T17:30:09.816Z,71.70
2019-01-28T17:33:02.313Z,70.10
2019-01-28T17:35:54.370Z,70.50
2019-01-28T17:38:46.820Z,70.30
2019-01-28T17:41:39.279Z,70.30
2019-01-28T17:44:32.213Z,70.40
2019-01-28T17:47:24.643Z,70.20
2019-01-28T17:50:24.310Z,70.30
2019-01-28T17:53:10.553Z,69.80
2019-01-28T17:56:02.816Z,69.60
2019-01-28T17:58:55.447Z,69.60
2019-01-28T18:01:47.584Z,69.50
2019-01-28T18:04:40.076Z,69.60
2019-01-28T18:07:32.489Z,69.30
2019-01-28T18:10:24.770Z,69.60
2019-01-28T18:13:16.712Z,69.30
2019-01-28T18:16:08.891Z,69.50
2019-01-28T18:19:01.046Z,69.20
2019-01-28T18:21:53.574Z,69.10
2019-01-28T18:24:45.608Z,68.80
2019-01-28T18:27:37.520Z,69.10
2019-01-28T18:30:35.208Z,69.40
2019-01-28T18:33:27.789Z,69.50
2019-01-28T18:36:19.976Z,69.10
2019-01-28T18:39:13.795Z,69.20
2019-01-28T18:42:06.625Z,69.10
2019-01-28T18:44:58.836Z,68.40
2019-01-28T18:47:51.187Z,68.50
2019-01-28T18:50:43.875Z,68.20
2019-01-28T18:53:36.159Z,68.10
2019-01-28T18:56:28.497Z,68.30
2019-01-28T18:59:21.184Z,68.30
2019-01-28T19:02:13.391Z,68.10
2019-01-28T19:05:06.015Z,68.10
2019-01-28T19:08:02.150Z,68.30
2019-01-28T19:11:12.796Z,67.90
2019-01-28T19:14:27.809Z,68.00
2019-01-28T19:17:53.443Z,68.30
2019-01-28T19:20:53.346Z,68.20
2019-01-28T19:23:45.661Z,68.10
2019-01-28T19:26:38.293Z,68.10
2019-01-28T19:29:30.216Z,68.20
2019-01-28T19:32:22.342Z,68.10
2019-01-28T19:35:14.166Z,69.10
2019-01-28T19:38:06.479Z,68.20
2019-01-28T19:40:58.647Z,68.10
2019-01-28T19:43:50.662Z,67.70
2019-01-28T19:46:42.967Z,67.80
2019-01-28T19:49:35.138Z,67.60
2019-01-28T19:52:27.380Z,67.90
2019-01-28T19:55:19.520Z,67.30
2019-01-28T19:58:11.839Z,67.30
2019-01-28T20:01:04.384Z,67.60
2019-01-28T20:03:56.445Z,67.40
2019-01-28T20:06:48.519Z,67.70
2019-01-28T20:09:40.694Z,67.40
2019-01-28T20:12:32.503Z,67.00
2019-01-28T20:15:25.924Z,66.80
2019-01-28T20:18:18.093Z,67.10
2019-01-28T20:21:10.081Z,67.20
2019-01-28T20:24:02.242Z,67.20
2019-01-28T20:26:54.436Z,67.10
2019-01-28T20:29:46.512Z,67.00
2019-01-28T20:32:38.338Z,67.20
2019-01-28T20:35:30.339Z,66.60
2019-01-28T20:38:22.375Z,66.50
2019-01-28T20:41:14.600Z,66.60
2019-01-28T20:44:06.881Z,66.60
2019-01-28T20:46:58.844Z,66.30
2019-01-28T20:49:50.722Z,66.00
2019-01-28T20:52:43.191Z,66.50
2019-01-28T20:55:35.170Z,66.20
2019-01-28T20:58:27.522Z,67.40
2019-01-28T21:01:19.978Z,67.50
2019-01-28T21:04:12.522Z,66.80
2019-01-28T21:07:04.512Z,66.50
2019-01-28T21:09:57.390Z,66.50
2019-01-28T21:12:49.444Z,66.60
2019-01-28T21:15:41.887Z,65.70
2019-01-28T21:18:34.197Z,65.50
2019-01-28T21:21:26.518Z,66.40
2019-01-28T21:24:18.800Z,65.50
2019-01-28T21:27:10.984Z,66.30
2019-01-28T21:30:02.847Z,65.90
2019-01-28T21:32:54.940Z,65.70
2019-01-28T21:36:04.091Z,65.40
2019-01-28T21:38:56.212Z,65.50
2019-01-28T21:41:48.180Z,64.70
2019-01-28T21:44:40.277Z,65.20
2019-01-28T21:47:32.603Z,65.40
2019-01-28T21:50:25.252Z,65.90
2019-01-28T21:53:17.778Z,65.50
2019-01-28T21:56:09.996Z,65.00
2019-01-28T21:59:02.571Z,64.90
2019-01-28T22:01:55.723Z,65.50
2019-01-28T22:04:48.065Z,65.00
2019-01-28T22:07:40.395Z,64.00
2019-01-28T22:10:32.327Z,64.50
2019-01-28T22:13:24.245Z,64.80
2019-01-28T22:16:16.279Z,64.50
2019-01-28T22:19:08.463Z,64.20
2019-01-28T22:22:00.391Z,63.80
2019-01-28T22:24:52.586Z,63.60
2019-01-28T22:27:45.093Z,63.90
2019-01-28T22:30:37.197Z,63.90
2019-01-28T22:33:29.130Z,63.60
2019-01-28T22:36:21.190Z,63.60
2019-01-28T22:39:13.424Z,63.40
2019-01-28T22:42:05.522Z,63.20
2019-01-28T22:44:57.320Z,63.50
2019-01-28T22:47:49.886Z,63.70
2019-01-28T22:50:41.670Z,63.40
2019-01-28T22:53:33.686Z,63.50
2019-01-28T22:56:25.875Z,64.00
2019-01-28T22:59:18.043Z,63.80
2019-01-28T23:02:10.188Z,63.30
2019-01-28T23:05:02.763Z,63.20
2019-01-28T23:07:55.158Z,63.50
2019-01-28T23:10:47.385Z,63.60
2019-01-28T23:13:39.436Z,63.20
2019-01-28T23:16:31.505Z,62.90
2019-01-28T23:19:23.600Z,63.90
2019-01-28T23:22:16.528Z,62.80
2019-01-28T23:25:09.277Z,62.80
2019-01-28T23:28:02.336Z,62.80
2019-01-28T23:30:54.603Z,62.50
2019-01-28T23:33:46.749Z,63.10
2019-01-28T23:36:38.758Z,62.60
2019-01-28T23:39:31.016Z,62.50
2019-01-28T23:42:23.094Z,62.40
2019-01-28T23:45:15.102Z,62.70
2019-01-28T23:48:07.414Z,62.00
2019-01-28T23:50:59.591Z,61.70
2019-01-28T23:53:51.605Z,61.90
2019-01-28T23:56:43.593Z,62.30
2019-01-28T23:59:35.923Z,62.20
